createdAt,value
2023-04-12T00:02:03.525Z,12.63
2023-04-12T00:04:34.786Z,12.69
2023-04-12T00:07:03.878Z,12.76
2023-04-12T00:09:36.633Z,12.83
2023-04-12T00:12:06.598Z,12.86
2023-04-12T00:14:35.298Z,12.90
2023-04-12T00:17:03.787Z,12.95
2023-04-12T00:19:33.185Z,12.99
2023-04-12T00:22:02.998Z,13.02
2023-04-12T00:24:32.306Z,13.04
2023-04-12T00:27:02.428Z,13.04
2023-04-12T00:29:36.178Z,13.03
2023-04-12T00:32:06.240Z,13.03
2023-04-12T00:34:34.669Z,13.04
2023-04-12T00:37:03.524Z,13.04
2023-04-12T00:39:33.240Z,13.04
2023-04-12T00:42:09.077Z,13.02
2023-04-12T00:44:37.539Z,13.01
2023-04-12T00:47:07.106Z,12.99
2023-04-12T00:49:37.898Z,12.97
2023-04-12T00:52:11.161Z,12.97
2023-04-12T00:54:42.711Z,12.97
2023-04-12T00:57:13.768Z,12.96
2023-04-12T00:59:42.889Z,12.93
2023-04-12T01:02:13.574Z,12.87
2023-04-12T01:04:44.435Z,12.81
2023-04-12T01:07:30.259Z,12.76
2023-04-12T01:10:05.202Z,12.71
2023-04-12T01:12:48.087Z,12.67
2023-04-12T01:15:16.773Z,12.62
2023-04-12T01:18:06.454Z,12.54
2023-04-12T01:20:39.465Z,12.43
2023-04-12T01:23:26.452Z,12.30
2023-04-12T01:26:22.132Z,12.13
2023-04-12T01:28:53.832Z,11.99
2023-04-12T01:31:26.426Z,11.92
2023-04-12T01:34:03.300Z,11.91
2023-04-12T01:36:32.485Z,11.91
2023-04-12T01:39:04.922Z,11.91
2023-04-12T01:41:33.743Z,11.92
2023-04-12T01:44:02.018Z,11.94
2023-04-12T01:46:32.757Z,11.95
2023-04-12T01:49:01.509Z,11.94
2023-04-12T01:51:42.333Z,11.94
2023-04-12T01:54:13.822Z,11.91
2023-04-12T01:56:46.649Z,11.86
2023-04-12T01:59:16.986Z,11.77
2023-04-12T02:01:47.050Z,11.63
2023-04-12T02:04:16.728Z,11.50
2023-04-12T02:06:46.439Z,11.37
2023-04-12T02:09:17.073Z,11.30
2023-04-12T02:11:48.596Z,11.28
2023-04-12T02:14:16.900Z,11.29
2023-04-12T02:16:51.074Z,11.36
2023-04-12T02:19:19.878Z,11.41
2023-04-12T02:21:48.358Z,11.42
2023-04-12T02:24:17.515Z,11.40
2023-04-12T02:26:50.092Z,11.41
2023-04-12T02:29:19.032Z,11.43
2023-04-12T02:31:51.559Z,11.43
2023-04-12T02:34:21.622Z,11.42
2023-04-12T02:36:56.754Z,11.43
2023-04-12T02:39:29.443Z,11.44
2023-04-12T02:41:58.631Z,11.46
2023-04-12T02:44:30.612Z,11.49
2023-04-12T02:47:14.877Z,11.51
2023-04-12T02:49:46.641Z,11.52
2023-04-12T02:52:16.871Z,11.53
2023-04-12T02:54:59.027Z,11.53
2023-04-12T02:57:27.895Z,11.54
2023-04-12T03:00:15.377Z,11.55
2023-04-12T03:03:03.513Z,11.55
2023-04-12T03:05:33.298Z,11.55
2023-04-12T03:08:02.812Z,11.54
2023-04-12T03:10:45.450Z,11.53
2023-04-12T03:13:14.332Z,11.46
2023-04-12T03:15:48.180Z,11.39
2023-04-12T03:18:17.638Z,11.35
2023-04-12T03:20:48.863Z,11.31
2023-04-12T03:23:18.235Z,11.22
2023-04-12T03:25:50.538Z,11.11
2023-04-12T03:28:39.404Z,10.98
2023-04-12T03:31:08.241Z,10.88
2023-04-12T03:33:41.374Z,10.81
2023-04-12T03:36:14.819Z,10.73
2023-04-12T03:38:43.662Z,10.65
2023-04-12T03:41:12.548Z,10.58
2023-04-12T03:43:42.913Z,10.52
2023-04-12T03:46:18.238Z,10.43
2023-04-12T03:48:52.396Z,10.35
2023-04-12T03:51:22.556Z,10.30
2023-04-12T03:53:51.233Z,10.26
2023-04-12T03:56:20.997Z,10.22
2023-04-12T03:58:51.422Z,10.17
2023-04-12T04:01:21.827Z,10.12
2023-04-12T04:03:50.811Z,10.10
2023-04-12T04:06:30.060Z,10.06
2023-04-12T04:08:58.612Z,10.03
2023-04-12T04:11:27.965Z,10.02
2023-04-12T04:14:02.337Z,10.00
2023-04-12T04:16:31.567Z,9.97
2023-04-12T04:19:00.895Z,9.96
2023-04-12T04:21:30.798Z,9.94
2023-04-12T04:24:01.483Z,9.93
2023-04-12T04:26:33.739Z,9.90
2023-04-12T04:29:26.348Z,9.89
2023-04-12T04:31:55.245Z,9.89
2023-04-12T04:34:25.562Z,9.88
2023-04-12T04:36:57.679Z,9.86
2023-04-12T04:39:28.547Z,9.85
2023-04-12T04:41:58.355Z,9.85
2023-04-12T04:44:37.535Z,9.87
2023-04-12T04:47:08.918Z,9.87
2023-04-12T04:49:39.656Z,9.87
2023-04-12T04:52:22.285Z,9.89
2023-04-12T04:54:51.157Z,9.90
2023-04-12T04:57:22.607Z,9.91
2023-04-12T04:59:51.879Z,9.91
2023-04-12T05:02:21.620Z,9.91
2023-04-12T05:04:51.533Z,9.90
2023-04-12T05:07:22.533Z,9.91
2023-04-12T05:09:51.642Z,9.92
2023-04-12T05:12:21.741Z,9.92
2023-04-12T05:15:10.660Z,9.89
2023-04-12T05:17:41.243Z,9.86
2023-04-12T05:20:13.538Z,9.84
2023-04-12T05:22:42.439Z,9.82
2023-04-12T05:25:11.125Z,9.79
2023-04-12T05:27:49.228Z,9.77
2023-04-12T05:30:19.342Z,9.76
2023-04-12T05:32:49.222Z,9.76
2023-04-12T05:35:18.881Z,9.76
2023-04-12T05:37:48.371Z,9.77
2023-04-12T05:40:18.138Z,9.80
2023-04-12T05:42:47.277Z,9.82
2023-04-12T05:45:16.222Z,9.84
2023-04-12T05:47:47.891Z,9.85
2023-04-12T05:50:17.402Z,9.86
2023-04-12T05:52:55.364Z,9.87
2023-04-12T05:55:29.156Z,9.87
2023-04-12T05:57:58.889Z,9.88
2023-04-12T06:00:28.254Z,9.88
2023-04-12T06:02:57.518Z,9.89
2023-04-12T06:05:28.950Z,9.90
2023-04-12T06:08:01.074Z,9.90
2023-04-12T06:10:30.753Z,9.93
2023-04-12T06:13:00.498Z,9.94
2023-04-12T06:15:32.263Z,9.95
2023-04-12T06:18:01.070Z,9.96
2023-04-12T06:20:34.081Z,9.98
2023-04-12T06:23:03.287Z,10.04
2023-04-12T06:25:32.389Z,10.11
2023-04-12T06:28:04.796Z,10.17
2023-04-12T06:30:38.806Z,10.21
2023-04-12T06:33:07.441Z,10.24
2023-04-12T06:35:36.192Z,10.26
2023-04-12T06:38:05.029Z,10.28
2023-04-12T06:40:38.694Z,10.28
2023-04-12T06:43:09.429Z,10.28
2023-04-12T06:45:37.993Z,10.26
2023-04-12T06:48:07.202Z,10.23
2023-04-12T06:50:35.966Z,10.19
2023-04-12T06:53:05.983Z,10.16
2023-04-12T06:55:35.083Z,10.16
2023-04-12T06:58:03.396Z,10.16
2023-04-12T07:00:33.676Z,10.16
2023-04-12T07:03:02.753Z,10.20
2023-04-12T07:05:31.512Z,10.23
2023-04-12T07:08:00.406Z,10.24
2023-04-12T07:10:29.960Z,10.25
2023-04-12T07:13:03.300Z,10.26
2023-04-12T07:15:32.580Z,10.29
2023-04-12T07:18:02.473Z,10.31
2023-04-12T07:20:31.235Z,10.34
2023-04-12T07:23:00.788Z,10.34
2023-04-12T07:25:29.552Z,10.35
2023-04-12T07:27:58.688Z,10.39
2023-04-12T07:30:27.443Z,10.43
2023-04-12T07:33:05.277Z,10.45
2023-04-12T07:35:42.825Z,10.48
2023-04-12T07:38:11.444Z,10.51
2023-04-12T07:40:39.935Z,10.53
2023-04-12T07:43:10.667Z,10.55
2023-04-12T07:45:39.453Z,10.56
2023-04-12T07:48:08.526Z,10.58
2023-04-12T07:50:39.146Z,10.61
2023-04-12T07:53:22.996Z,10.63
2023-04-12T07:55:51.983Z,10.67
2023-04-12T07:58:22.007Z,10.69
2023-04-12T08:00:54.694Z,10.72
2023-04-12T08:03:24.808Z,10.72
2023-04-12T08:05:54.054Z,10.70
2023-04-12T08:08:26.176Z,10.70
2023-04-12T08:10:55.445Z,10.70
2023-04-12T08:13:24.156Z,10.72
2023-04-12T08:15:55.355Z,10.74
2023-04-12T08:18:24.697Z,10.77
2023-04-12T08:20:53.024Z,10.77
2023-04-12T08:23:23.662Z,10.79
2023-04-12T08:25:53.473Z,10.78
2023-04-12T08:28:22.974Z,10.79
2023-04-12T08:30:52.045Z,10.82
2023-04-12T08:33:23.577Z,10.83
2023-04-12T08:35:53.091Z,10.86
2023-04-12T08:38:30.709Z,10.90
2023-04-12T08:41:11.143Z,10.96
2023-04-12T08:43:43.422Z,10.99
2023-04-12T08:46:16.102Z,11.02
2023-04-12T08:48:46.670Z,11.04
2023-04-12T08:51:18.840Z,11.06
2023-04-12T08:53:48.513Z,11.08
2023-04-12T08:56:22.202Z,11.08
2023-04-12T08:58:51.235Z,11.12
2023-04-12T09:01:20.492Z,11.14
2023-04-12T09:03:52.210Z,11.16
2023-04-12T09:06:21.782Z,11.17
2023-04-12T09:08:57.206Z,11.19
2023-04-12T09:11:31.267Z,11.20
2023-04-12T09:14:00.186Z,11.21
2023-04-12T09:16:35.796Z,11.23
2023-04-12T09:19:05.264Z,11.26
2023-04-12T09:21:35.088Z,11.25
2023-04-12T09:24:03.960Z,11.25
2023-04-12T09:26:37.157Z,11.24
2023-04-12T09:29:05.834Z,11.23
2023-04-12T09:31:34.353Z,11.22
2023-04-12T09:34:09.002Z,11.20
2023-04-12T09:36:39.111Z,11.20
2023-04-12T09:39:10.504Z,11.20
2023-04-12T09:41:39.797Z,11.21
2023-04-12T09:44:08.709Z,11.24
2023-04-12T09:46:44.926Z,11.28
2023-04-12T09:49:14.799Z,11.30
2023-04-12T09:51:43.271Z,11.31
2023-04-12T09:54:12.311Z,11.32
2023-04-12T09:56:42.478Z,11.33
2023-04-12T09:59:10.808Z,11.33
2023-04-12T10:01:40.481Z,11.33
2023-04-12T10:04:09.976Z,11.33
2023-04-12T10:06:42.225Z,11.33
2023-04-12T10:09:10.915Z,11.33
2023-04-12T10:11:42.176Z,11.34
2023-04-12T10:14:11.942Z,11.36
2023-04-12T10:16:45.338Z,11.36
2023-04-12T10:19:14.398Z,11.35
2023-04-12T10:21:43.250Z,11.36
2023-04-12T10:24:16.894Z,11.38
2023-04-12T10:26:45.567Z,11.40
2023-04-12T10:29:27.200Z,11.42
2023-04-12T10:31:56.387Z,11.43
2023-04-12T10:34:29.808Z,11.45
2023-04-12T10:37:01.792Z,11.45
2023-04-12T10:39:45.482Z,11.48
2023-04-12T10:42:17.121Z,11.50
2023-04-12T10:45:00.382Z,11.52
2023-04-12T10:47:48.225Z,11.54
2023-04-12T10:50:27.801Z,11.54
2023-04-12T10:53:18.008Z,11.55
2023-04-12T10:55:47.329Z,11.56
2023-04-12T10:58:50.032Z,11.58
2023-04-12T11:01:23.172Z,11.61
2023-04-12T11:04:18.805Z,11.67
2023-04-12T11:07:23.310Z,11.77
2023-04-12T11:10:03.442Z,11.85
2023-04-12T11:12:37.750Z,11.89
2023-04-12T11:15:07.113Z,11.92
2023-04-12T11:18:01.170Z,11.96
2023-04-12T11:20:30.084Z,12.02
2023-04-12T11:23:00.833Z,12.08
2023-04-12T11:25:29.692Z,12.18
2023-04-12T11:27:58.777Z,12.29
2023-04-12T11:30:29.815Z,12.43
2023-04-12T11:32:58.966Z,12.60
2023-04-12T11:35:30.611Z,12.78
2023-04-12T11:37:59.600Z,12.96
2023-04-12T11:40:28.653Z,13.11
2023-04-12T11:42:58.135Z,13.26
2023-04-12T11:45:27.017Z,13.35
2023-04-12T11:47:58.836Z,13.40
2023-04-12T11:50:31.631Z,13.41
2023-04-12T11:53:13.996Z,13.42
2023-04-12T11:55:47.694Z,13.41
2023-04-12T11:58:17.374Z,13.41
2023-04-12T12:00:46.694Z,13.42
2023-04-12T12:03:16.811Z,13.47
2023-04-12T12:05:47.254Z,13.53
2023-04-12T12:08:16.061Z,13.56
2023-04-12T12:11:06.323Z,13.60
2023-04-12T12:13:52.994Z,13.62
2023-04-12T12:16:29.040Z,13.64
2023-04-12T12:18:59.124Z,13.65
2023-04-12T12:21:28.701Z,13.60
2023-04-12T12:23:57.790Z,13.56
2023-04-12T12:26:30.970Z,13.51
2023-04-12T12:29:02.577Z,13.47
2023-04-12T12:31:33.907Z,13.47
2023-04-12T12:34:04.324Z,13.47
2023-04-12T12:36:36.756Z,13.43
2023-04-12T12:39:08.268Z,13.39
2023-04-12T12:41:37.466Z,13.34
2023-04-12T12:44:07.018Z,13.31
2023-04-12T12:49:07.732Z,13.25
2023-04-12T12:51:36.858Z,13.24
2023-04-12T12:54:05.429Z,13.25
2023-04-12T12:56:37.707Z,13.24
2023-04-12T12:59:07.287Z,13.25
2023-04-12T13:01:36.241Z,13.24
2023-04-12T13:04:05.163Z,13.24
2023-04-12T13:06:34.059Z,13.24
2023-04-12T13:09:02.749Z,13.23
2023-04-12T13:11:33.264Z,13.22
2023-04-12T13:14:02.736Z,13.22
2023-04-12T13:16:31.894Z,13.22
2023-04-12T13:19:00.867Z,13.22
2023-04-12T13:21:29.940Z,13.23
2023-04-12T13:23:59.214Z,13.23
2023-04-12T13:26:27.942Z,13.23
2023-04-12T13:28:56.609Z,13.23
2023-04-12T13:31:28.969Z,13.22
2023-04-12T13:33:59.122Z,13.22
2023-04-12T13:36:27.713Z,13.22
2023-04-12T13:38:56.358Z,13.21
2023-04-12T13:41:25.854Z,13.19
2023-04-12T13:43:54.485Z,13.18
2023-04-12T13:46:25.023Z,13.18
2023-04-12T13:48:54.413Z,13.16
2023-04-12T13:51:22.931Z,13.15
2023-04-12T13:53:51.512Z,13.14
2023-04-12T13:56:21.094Z,13.13
2023-04-12T13:58:49.367Z,13.14
2023-04-12T14:01:18.855Z,13.15
2023-04-12T14:03:48.483Z,13.15
2023-04-12T14:06:17.063Z,13.16
2023-04-12T14:08:48.238Z,13.17
2023-04-12T14:11:17.320Z,13.18
2023-04-12T14:13:45.886Z,13.18
2023-04-12T14:16:14.360Z,13.17
2023-04-12T14:18:43.156Z,13.17
2023-04-12T14:21:11.750Z,13.17
2023-04-12T14:23:41.680Z,13.15
2023-04-12T14:26:15.980Z,13.14
2023-04-12T14:28:44.757Z,13.13
2023-04-12T14:31:20.348Z,13.13
2023-04-12T14:33:51.041Z,13.12
2023-04-12T14:36:19.424Z,13.12
2023-04-12T14:38:50.277Z,13.12
2023-04-12T14:41:18.836Z,13.11
2023-04-12T14:43:47.425Z,13.11
2023-04-12T14:46:19.341Z,13.10
2023-04-12T14:48:48.036Z,13.10
2023-04-12T14:51:17.439Z,13.11
2023-04-12T14:53:49.260Z,13.13
2023-04-12T14:56:27.867Z,13.17
2023-04-12T14:58:58.760Z,13.19
2023-04-12T15:01:29.030Z,13.20
2023-04-12T15:03:58.140Z,13.20
2023-04-12T15:06:35.388Z,13.20
2023-04-12T15:09:06.621Z,13.19
2023-04-12T15:11:36.145Z,13.18
2023-04-12T15:14:10.285Z,13.18
2023-04-12T15:16:42.832Z,13.19
2023-04-12T15:19:20.402Z,13.20
2023-04-12T15:21:54.355Z,13.22
2023-04-12T15:24:28.467Z,13.24
2023-04-12T15:26:58.088Z,13.25
2023-04-12T15:29:29.511Z,13.28
2023-04-12T15:31:58.272Z,13.30
2023-04-12T15:34:28.827Z,13.30
2023-04-12T15:36:57.655Z,13.31
2023-04-12T15:39:27.850Z,13.33
2023-04-12T15:41:56.946Z,13.32
2023-04-12T15:44:30.458Z,13.32
2023-04-12T15:47:10.253Z,13.34
2023-04-12T15:49:40.686Z,13.34
2023-04-12T15:52:09.269Z,13.33
2023-04-12T15:54:44.140Z,13.32
2023-04-12T15:57:12.768Z,13.32
2023-04-12T15:59:48.164Z,13.33
2023-04-12T16:02:17.574Z,13.33
2023-04-12T16:04:46.741Z,13.32
2023-04-12T16:07:15.334Z,13.30
2023-04-12T16:09:44.230Z,13.31
2023-04-12T16:12:14.548Z,13.31
2023-04-12T16:14:43.652Z,13.30
2023-04-12T16:17:12.690Z,13.30
2023-04-12T16:19:42.148Z,13.30
2023-04-12T16:22:11.138Z,13.29
2023-04-12T16:24:45.656Z,13.29
2023-04-12T16:27:15.165Z,13.28
2023-04-12T16:29:43.954Z,13.29
2023-04-12T16:32:15.055Z,13.29
2023-04-12T16:34:44.810Z,13.30
2023-04-12T16:37:13.599Z,13.29
2023-04-12T16:39:46.486Z,13.29
2023-04-12T16:42:15.880Z,13.30
2023-04-12T16:44:44.367Z,13.30
2023-04-12T16:47:13.015Z,13.30
2023-04-12T16:49:42.699Z,13.31
2023-04-12T16:52:11.973Z,13.31
2023-04-12T16:54:40.954Z,13.32
2023-04-12T16:57:09.575Z,13.33
2023-04-12T16:59:42.469Z,13.35
2023-04-12T17:02:12.879Z,13.35
2023-04-12T17:04:42.353Z,13.34
2023-04-12T17:07:11.140Z,13.34
2023-04-12T17:09:41.311Z,13.35
2023-04-12T17:12:10.096Z,13.36
2023-04-12T17:14:39.041Z,13.36
2023-04-12T17:17:15.213Z,13.36
2023-04-12T17:19:44.838Z,13.35
2023-04-12T17:22:13.387Z,13.35
2023-04-12T17:24:44.533Z,13.34
2023-04-12T17:27:13.318Z,13.33
2023-04-12T17:29:41.713Z,13.33
2023-04-12T17:32:18.472Z,13.33
2023-04-12T17:34:47.478Z,13.34
2023-04-12T17:37:16.306Z,13.33
2023-04-12T17:39:48.640Z,13.34
2023-04-12T17:42:20.914Z,13.34
2023-04-12T17:44:49.648Z,13.33
2023-04-12T17:47:23.755Z,13.33
2023-04-12T17:49:52.412Z,13.34
2023-04-12T17:52:21.090Z,13.35
2023-04-12T17:54:51.616Z,13.36
2023-04-12T17:57:20.089Z,13.37
2023-04-12T17:59:48.974Z,13.36
2023-04-12T18:02:17.531Z,13.35
2023-04-12T18:04:47.196Z,13.34
2023-04-12T18:07:16.720Z,13.32
2023-04-12T18:09:45.578Z,13.32
2023-04-12T18:12:14.175Z,13.32
2023-04-12T18:14:44.005Z,13.32
2023-04-12T18:17:12.971Z,13.33
2023-04-12T18:19:42.348Z,13.33
2023-04-12T18:22:10.934Z,13.32
2023-04-12T18:24:39.894Z,13.30
2023-04-12T18:27:08.661Z,13.30
2023-04-12T18:29:37.916Z,13.29
2023-04-12T18:32:06.502Z,13.27
2023-04-12T18:34:35.739Z,13.26
2023-04-12T18:37:06.225Z,13.25
2023-04-12T18:39:36.053Z,13.25
2023-04-12T18:42:04.727Z,13.24
2023-04-12T18:44:35.193Z,13.23
2023-04-12T18:47:04.488Z,13.22
2023-04-12T18:49:33.154Z,13.21
2023-04-12T18:52:02.064Z,13.19
2023-04-12T18:54:35.775Z,13.18
2023-04-12T18:57:04.730Z,13.16
2023-04-12T18:59:33.371Z,13.12
2023-04-12T19:02:04.593Z,13.05
2023-04-12T19:04:34.224Z,12.94
2023-04-12T19:07:03.058Z,12.80
2023-04-12T19:09:32.280Z,12.65
2023-04-12T19:12:03.103Z,12.51
2023-04-12T19:14:32.210Z,12.40
2023-04-12T19:17:01.287Z,12.33
2023-04-12T19:19:32.452Z,12.28
2023-04-12T19:22:01.230Z,12.25
2023-04-12T19:24:29.816Z,12.24
2023-04-12T19:26:58.480Z,12.26
2023-04-12T19:29:28.392Z,12.30
2023-04-12T19:31:58.644Z,12.34
2023-04-12T19:34:27.919Z,12.36
2023-04-12T19:36:56.506Z,12.36
2023-04-12T19:39:27.137Z,12.35
2023-04-12T19:41:56.835Z,12.35
2023-04-12T19:44:25.933Z,12.35
2023-04-12T19:46:54.308Z,12.33
2023-04-12T19:49:23.951Z,12.28
2023-04-12T19:51:52.562Z,12.23
2023-04-12T19:54:23.984Z,12.18
2023-04-12T19:56:53.665Z,12.13
2023-04-12T19:59:23.351Z,12.06
2023-04-12T20:01:56.263Z,11.99
2023-04-12T20:04:24.750Z,11.89
2023-04-12T20:06:54.121Z,11.79
2023-04-12T20:09:23.104Z,11.72
2023-04-12T20:11:51.817Z,11.67
2023-04-12T20:14:22.169Z,11.64
2023-04-12T20:16:56.109Z,11.63
2023-04-12T20:19:27.634Z,11.62
2023-04-12T20:22:02.126Z,11.62
2023-04-12T20:24:34.401Z,11.66
2023-04-12T20:27:04.017Z,11.70
2023-04-12T20:29:34.769Z,11.73
2023-04-12T20:32:04.446Z,11.76
2023-04-12T20:34:34.489Z,11.77
2023-04-12T20:37:03.560Z,11.81
2023-04-12T20:39:32.258Z,11.82
2023-04-12T20:42:01.516Z,11.84
2023-04-12T20:44:30.138Z,11.87
2023-04-12T20:47:02.808Z,11.87
2023-04-12T20:49:32.222Z,11.86
2023-04-12T20:52:01.001Z,11.86
2023-04-12T20:54:31.906Z,11.86
2023-04-12T20:57:01.031Z,11.86
2023-04-12T20:59:32.139Z,11.86
2023-04-12T21:02:01.062Z,11.87
2023-04-12T21:04:30.746Z,11.88
2023-04-12T21:07:03.581Z,11.87
2023-04-12T21:09:32.711Z,11.86
2023-04-12T21:12:05.184Z,11.87
2023-04-12T21:14:50.251Z,11.88
2023-04-12T21:17:22.539Z,11.88
2023-04-12T21:19:51.370Z,11.85
2023-04-12T21:22:25.075Z,11.84
2023-04-12T21:24:53.750Z,11.82
2023-04-12T21:27:22.235Z,11.81
2023-04-12T21:29:52.152Z,11.78
2023-04-12T21:32:21.213Z,11.77
2023-04-12T21:34:50.407Z,11.77
2023-04-12T21:37:22.343Z,11.73
2023-04-12T21:39:50.859Z,11.68
2023-04-12T21:42:27.567Z,11.64
2023-04-12T21:44:56.348Z,11.59
2023-04-12T21:47:24.958Z,11.53
2023-04-12T21:49:53.885Z,11.47
2023-04-12T21:52:22.206Z,11.40
2023-04-12T21:54:54.109Z,11.35
2023-04-12T21:57:22.572Z,11.30
2023-04-12T21:59:51.178Z,11.24
2023-04-12T22:02:19.704Z,11.16
2023-04-12T22:04:49.418Z,11.06
2023-04-12T22:07:18.871Z,10.95
2023-04-12T22:09:47.595Z,10.85
2023-04-12T22:12:20.620Z,10.76
2023-04-12T22:14:58.848Z,10.70
2023-04-12T22:17:27.437Z,10.64
2023-04-12T22:19:56.874Z,10.61
2023-04-12T22:22:26.225Z,10.58
2023-04-12T22:24:55.091Z,10.55
2023-04-12T22:27:26.909Z,10.52
2023-04-12T22:29:58.602Z,10.51
2023-04-12T22:32:27.833Z,10.50
2023-04-12T22:35:08.127Z,10.50
2023-04-12T22:37:41.552Z,10.52
2023-04-12T22:40:12.484Z,10.52
2023-04-12T22:42:47.572Z,10.52
2023-04-12T22:45:16.678Z,10.51
2023-04-12T22:47:45.615Z,10.49
2023-04-12T22:50:17.798Z,10.47
2023-04-12T22:52:50.195Z,10.44
2023-04-12T22:55:18.944Z,10.42
2023-04-12T22:57:53.277Z,10.39
2023-04-12T23:00:25.330Z,10.36
2023-04-12T23:02:54.641Z,10.34
2023-04-12T23:05:24.148Z,10.31
2023-04-12T23:07:53.399Z,10.29
2023-04-12T23:10:23.159Z,10.26
2023-04-12T23:12:53.664Z,10.21
2023-04-12T23:15:24.328Z,10.15
2023-04-12T23:17:54.872Z,10.11
2023-04-12T23:20:23.337Z,10.06
2023-04-12T23:22:57.718Z,10.01
2023-04-12T23:25:41.958Z,9.96
2023-04-12T23:28:15.189Z,9.91
2023-04-12T23:30:50.117Z,9.87
2023-04-12T23:33:20.700Z,9.83
2023-04-12T23:35:52.598Z,9.78
2023-04-12T23:38:31.932Z,9.77
2023-04-12T23:41:02.576Z,9.72
2023-04-12T23:43:32.600Z,9.69
2023-04-12T23:46:03.291Z,9.66
2023-04-12T23:48:32.460Z,9.65
2023-04-12T23:51:01.329Z,9.63
2023-04-12T23:53:29.893Z,9.61
2023-04-12T23:55:59.090Z,9.60
2023-04-12T23:58:27.506Z,9.60
